createdAt,value
2023-04-22T00:02:04.977Z,99358.50
2023-04-22T00:04:38.399Z,99359.38
2023-04-22T00:07:12.767Z,99364.69
2023-04-22T00:09:46.120Z,99362.56
2023-04-22T00:12:20.756Z,99363.16
2023-04-22T00:14:55.590Z,99362.72
2023-04-22T00:17:28.998Z,99364.94
2023-04-22T00:20:02.620Z,99361.50
2023-04-22T00:22:35.845Z,99355.22
2023-04-22T00:25:09.454Z,99363.84
2023-04-22T00:27:42.365Z,99354.13
2023-04-22T00:30:16.867Z,99354.25
2023-04-22T00:32:50.199Z,99353.75
2023-04-22T00:35:23.596Z,99351.63
2023-04-22T00:37:56.725Z,99351.13
2023-04-22T00:40:29.673Z,99361.75
2023-04-22T00:43:03.491Z,99361.47
2023-04-22T00:45:38.948Z,99367.38
2023-04-22T00:48:12.951Z,99372.38
2023-04-22T00:50:46.307Z,99366.41
2023-04-22T00:53:19.508Z,99366.97
2023-04-22T00:55:52.476Z,99367.13
2023-04-22T00:58:27.096Z,99367.00
2023-04-22T01:01:01.529Z,99362.84
2023-04-22T01:03:37.460Z,99357.53
2023-04-22T01:06:10.960Z,99363.47
2023-04-22T01:08:44.999Z,99366.78
2023-04-22T01:11:17.874Z,99361.81
2023-04-22T01:13:51.551Z,99361.00
2023-04-22T01:16:29.072Z,99362.94
2023-04-22T01:19:02.744Z,99358.69
2023-04-22T01:21:36.315Z,99361.28
2023-04-22T01:24:10.894Z,99359.09
2023-04-22T01:26:44.017Z,99362.88
2023-04-22T01:29:17.216Z,99371.88
2023-04-22T01:31:50.647Z,99360.28
2023-04-22T01:34:24.011Z,99370.91
2023-04-22T01:36:57.017Z,99361.97
2023-04-22T01:39:31.663Z,99371.66
2023-04-22T01:42:04.717Z,99369.97
2023-04-22T01:44:37.760Z,99366.88
2023-04-22T01:47:10.652Z,99366.88
2023-04-22T01:49:44.092Z,99363.47
2023-04-22T01:52:17.220Z,99366.34
2023-04-22T01:54:52.366Z,99359.00
2023-04-22T01:57:25.213Z,99362.97
2023-04-22T01:59:58.949Z,99366.31
2023-04-22T02:02:31.960Z,99364.81
2023-04-22T02:05:06.827Z,99364.63
2023-04-22T02:07:39.919Z,99363.06
2023-04-22T02:10:14.518Z,99365.31
2023-04-22T02:12:48.262Z,99362.69
2023-04-22T02:15:22.901Z,99378.13
2023-04-22T02:17:56.325Z,99371.78
2023-04-22T02:20:29.669Z,99370.38
2023-04-22T02:23:02.608Z,99367.03
2023-04-22T02:25:37.742Z,99361.00
2023-04-22T02:28:10.738Z,99367.88
2023-04-22T02:30:43.715Z,99350.34
2023-04-22T02:33:16.866Z,99353.81
2023-04-22T02:35:50.018Z,99359.59
2023-04-22T02:38:22.963Z,99355.94
2023-04-22T02:40:57.376Z,99352.84
2023-04-22T02:43:30.330Z,99357.06
2023-04-22T02:46:03.263Z,99363.81
2023-04-22T02:48:36.315Z,99364.94
2023-04-22T02:51:09.608Z,99369.13
2023-04-22T02:53:43.101Z,99363.88
2023-04-22T02:56:17.436Z,99359.72
2023-04-22T02:58:50.373Z,99368.25
2023-04-22T03:01:23.704Z,99367.81
2023-04-22T03:03:58.504Z,99366.03
2023-04-22T03:06:32.838Z,99371.66
2023-04-22T03:09:06.231Z,99369.50
2023-04-22T03:11:40.746Z,99373.50
2023-04-22T03:14:14.337Z,99372.72
2023-04-22T03:16:49.094Z,99366.00
2023-04-22T03:19:24.116Z,99369.47
2023-04-22T03:21:58.345Z,99366.53
2023-04-22T03:24:31.473Z,99374.41
2023-04-22T03:27:17.396Z,99368.63
2023-04-22T03:29:53.311Z,99360.31
2023-04-22T03:32:26.830Z,99364.28
2023-04-22T03:34:59.946Z,99365.41
2023-04-22T03:37:32.976Z,99363.44
2023-04-22T03:40:07.623Z,99366.13
2023-04-22T03:42:41.862Z,99375.53
2023-04-22T03:45:15.082Z,99381.09
2023-04-22T03:47:49.440Z,99387.00
2023-04-22T03:50:23.048Z,99384.13
2023-04-22T03:52:56.324Z,99394.19
2023-04-22T03:55:29.251Z,99396.31
2023-04-22T03:58:03.702Z,99398.00
2023-04-22T04:00:37.248Z,99398.97
2023-04-22T04:03:11.093Z,99402.69
2023-04-22T04:05:44.365Z,99413.53
2023-04-22T04:08:18.163Z,99404.72
2023-04-22T04:10:51.268Z,99409.72
2023-04-22T04:13:26.259Z,99410.72
2023-04-22T04:16:01.583Z,99414.06
2023-04-22T04:18:35.179Z,99416.44
2023-04-22T04:21:08.739Z,99423.72
2023-04-22T04:23:41.794Z,99418.19
2023-04-22T04:26:15.139Z,99417.19
2023-04-22T04:28:50.160Z,99424.06
2023-04-22T04:31:25.025Z,99416.19
2023-04-22T04:33:58.525Z,99424.47
2023-04-22T04:36:33.006Z,99429.84
2023-04-22T04:39:06.018Z,99432.19
2023-04-22T04:41:41.288Z,99436.97
2023-04-22T04:44:16.032Z,99431.94
2023-04-22T04:46:50.661Z,99439.63
2023-04-22T04:49:23.723Z,99444.22
2023-04-22T04:51:56.802Z,99442.78
2023-04-22T04:54:29.711Z,99444.41
2023-04-22T04:57:03.262Z,99445.28
2023-04-22T04:59:38.438Z,99451.19
2023-04-22T05:02:12.032Z,99448.78
2023-04-22T05:04:45.270Z,99451.03
2023-04-22T05:07:18.623Z,99450.31
2023-04-22T05:09:51.744Z,99452.66
2023-04-22T05:12:25.837Z,99454.00
2023-04-22T05:15:01.109Z,99452.31
2023-04-22T05:17:34.739Z,99458.91
2023-04-22T05:20:08.364Z,99448.63
2023-04-22T05:22:43.259Z,99453.72
2023-04-22T05:25:16.256Z,99461.13
2023-04-22T05:27:49.391Z,99459.44
2023-04-22T05:30:24.292Z,99460.25
2023-04-22T05:32:57.672Z,99464.91
2023-04-22T05:35:30.973Z,99470.44
2023-04-22T05:38:04.131Z,99466.06
2023-04-22T05:40:37.363Z,99461.84
2023-04-22T05:43:11.482Z,99460.75
2023-04-22T05:45:46.167Z,99459.63
2023-04-22T05:48:19.510Z,99456.38
2023-04-22T05:50:52.465Z,99454.53
2023-04-22T05:53:25.573Z,99461.56
2023-04-22T05:55:58.732Z,99468.59
2023-04-22T05:58:31.857Z,99467.88
2023-04-22T06:01:06.971Z,99472.13
2023-04-22T06:03:40.691Z,99466.09
2023-04-22T06:06:13.981Z,99462.00
2023-04-22T06:08:47.104Z,99460.00
2023-04-22T06:11:21.049Z,99454.94
2023-04-22T06:13:54.357Z,99464.66
2023-04-22T06:16:28.901Z,99458.22
2023-04-22T06:19:01.962Z,99466.06
2023-04-22T06:21:36.969Z,99464.19
2023-04-22T06:24:10.475Z,99473.72
2023-04-22T06:26:43.409Z,99471.13
2023-04-22T06:29:16.985Z,99466.41
2023-04-22T06:31:51.741Z,99464.50
2023-04-22T06:34:24.719Z,99466.31
2023-04-22T06:36:58.217Z,99471.19
2023-04-22T06:39:31.170Z,99471.41
2023-04-22T06:42:04.291Z,99476.56
2023-04-22T06:44:37.676Z,99466.53
2023-04-22T06:47:12.341Z,99475.91
2023-04-22T06:49:45.907Z,99471.13
2023-04-22T06:52:19.432Z,99482.41
2023-04-22T06:54:52.483Z,99470.31
2023-04-22T06:57:25.432Z,99478.97
2023-04-22T06:59:58.977Z,99475.59
2023-04-22T07:02:34.088Z,99481.50
2023-04-22T07:05:07.402Z,99480.75
2023-04-22T07:07:40.351Z,99478.75
2023-04-22T07:10:14.593Z,99489.88
2023-04-22T07:12:55.440Z,99488.41
2023-04-22T07:15:29.328Z,99496.22
2023-04-22T07:18:03.598Z,99497.91
2023-04-22T07:20:36.667Z,99494.28
2023-04-22T07:23:09.675Z,99496.50
2023-04-22T07:25:42.652Z,99499.81
2023-04-22T07:28:15.841Z,99494.66
2023-04-22T07:30:49.240Z,99485.75
2023-04-22T07:33:23.999Z,99499.50
2023-04-22T07:35:57.195Z,99498.28
2023-04-22T07:38:30.173Z,99500.47
2023-04-22T07:41:03.416Z,99496.19
2023-04-22T07:43:36.558Z,99500.16
2023-04-22T07:46:09.886Z,99499.47
2023-04-22T07:48:44.491Z,99496.75
2023-04-22T07:51:17.660Z,99502.19
2023-04-22T07:53:50.684Z,99506.03
2023-04-22T07:56:23.920Z,99505.59
2023-04-22T07:58:57.277Z,99504.41
2023-04-22T08:01:30.898Z,99504.63
2023-04-22T08:04:05.819Z,99504.09
2023-04-22T08:06:39.191Z,99504.63
2023-04-22T08:09:12.773Z,99499.38
2023-04-22T08:11:46.620Z,99502.75
2023-04-22T08:14:20.647Z,99506.16
2023-04-22T08:16:54.406Z,99495.31
2023-04-22T08:19:29.371Z,99497.88
2023-04-22T08:22:02.340Z,99496.72
2023-04-22T08:24:35.297Z,99494.00
2023-04-22T08:27:08.608Z,99495.56
2023-04-22T08:29:42.436Z,99490.31
2023-04-22T08:32:16.230Z,99419.28
2023-04-22T08:34:52.027Z,99488.25
2023-04-22T08:37:27.372Z,99481.59
2023-04-22T08:40:02.381Z,99481.59
2023-04-22T08:42:36.052Z,99474.91
2023-04-22T08:45:10.010Z,99478.94
2023-04-22T08:47:43.898Z,99475.09
2023-04-22T08:50:18.325Z,99483.13
2023-04-22T08:52:51.862Z,99472.22
2023-04-22T08:55:24.892Z,99470.84
2023-04-22T08:57:58.525Z,99478.59
2023-04-22T09:00:32.277Z,99472.56
2023-04-22T09:03:07.084Z,99468.19
2023-04-22T09:05:41.993Z,99467.50
2023-04-22T09:08:15.358Z,99471.19
2023-04-22T09:10:48.700Z,99465.84
2023-04-22T09:13:24.271Z,99467.38
2023-04-22T09:16:00.110Z,99470.22
2023-04-22T09:18:40.129Z,99459.28
2023-04-22T09:21:14.989Z,99452.41
2023-04-22T09:23:50.058Z,99461.47
2023-04-22T09:26:26.720Z,99456.44
2023-04-22T09:29:01.078Z,99453.75
2023-04-22T09:31:34.092Z,99451.03
2023-04-22T09:34:07.436Z,99452.69
2023-04-22T09:36:43.993Z,99447.78
2023-04-22T09:39:17.134Z,99441.22
2023-04-22T09:41:55.512Z,99440.06
2023-04-22T09:44:28.757Z,99444.88
2023-04-22T09:47:02.026Z,99431.06
2023-04-22T09:49:38.032Z,99431.00
2023-04-22T09:52:12.616Z,99426.00
2023-04-22T09:54:51.784Z,99422.28
2023-04-22T09:57:24.928Z,99414.47
2023-04-22T10:00:00.241Z,99411.84
2023-04-22T10:02:33.828Z,99407.84
2023-04-22T10:05:07.419Z,99404.13
2023-04-22T10:07:42.624Z,99417.41
2023-04-22T10:10:15.924Z,99399.63
2023-04-22T10:12:51.485Z,99400.81
2023-04-22T10:15:27.126Z,99395.44
2023-04-22T10:18:02.599Z,99392.97
2023-04-22T10:20:37.643Z,99387.59
2023-04-22T10:23:19.238Z,99389.22
2023-04-22T10:25:54.861Z,99393.56
2023-04-22T10:28:29.599Z,99393.63
2023-04-22T10:31:07.885Z,99388.72
2023-04-22T10:33:41.240Z,99386.13
2023-04-22T10:36:17.727Z,99386.91
2023-04-22T10:39:22.320Z,99387.06
2023-04-22T10:41:58.733Z,99386.66
2023-04-22T10:44:46.349Z,99383.84
2023-04-22T10:47:29.397Z,99388.88
2023-04-22T10:50:15.923Z,99382.94
2023-04-22T10:52:50.631Z,99382.06
2023-04-22T10:55:24.251Z,99377.94
2023-04-22T10:58:00.564Z,99371.66
2023-04-22T11:00:52.592Z,99384.50
2023-04-22T11:03:29.082Z,99377.22
2023-04-22T11:06:15.748Z,99373.41
2023-04-22T11:08:50.267Z,99377.50
2023-04-22T11:11:24.004Z,99377.97
2023-04-22T11:13:58.935Z,99373.22
2023-04-22T11:16:32.464Z,99366.09
2023-04-22T11:19:05.854Z,99372.94
2023-04-22T11:21:38.907Z,99381.97
2023-04-22T11:24:12.060Z,99370.06
2023-04-22T11:26:46.249Z,99376.88
2023-04-22T11:29:20.956Z,99371.94
2023-04-22T11:31:54.056Z,99376.59
2023-04-22T11:34:27.337Z,99377.19
2023-04-22T11:37:00.314Z,99366.13
2023-04-22T11:39:43.566Z,99375.91
2023-04-22T11:42:22.650Z,99369.22
2023-04-22T11:44:57.103Z,99372.91
2023-04-22T11:47:30.629Z,99361.19
2023-04-22T11:50:07.035Z,99362.19
2023-04-22T11:52:45.500Z,99366.13
2023-04-22T11:55:20.911Z,99366.22
2023-04-22T11:57:55.243Z,99362.56
2023-04-22T12:00:33.190Z,99361.50
2023-04-22T12:03:09.000Z,99362.88
2023-04-22T12:05:43.006Z,99359.53
2023-04-22T12:08:16.595Z,99351.00
2023-04-22T12:10:50.966Z,99340.19
2023-04-22T12:13:26.745Z,99349.78
2023-04-22T12:16:03.150Z,99347.19
2023-04-22T12:18:37.005Z,99339.53
2023-04-22T12:21:11.061Z,99335.63
2023-04-22T12:23:44.452Z,99340.94
2023-04-22T12:26:18.481Z,99337.22
2023-04-22T12:28:52.057Z,99338.81
2023-04-22T12:31:26.458Z,99339.88
2023-04-22T12:34:00.446Z,99350.72
2023-04-22T12:36:33.589Z,99347.63
2023-04-22T12:39:07.069Z,99339.91
2023-04-22T12:41:40.164Z,99339.53
2023-04-22T12:44:13.110Z,99352.47
2023-04-22T12:46:47.667Z,99354.63
2023-04-22T12:49:21.042Z,99346.78
2023-04-22T12:51:53.991Z,99358.53
2023-04-22T12:54:26.920Z,99355.38
2023-04-22T12:57:01.605Z,99356.03
2023-04-22T12:59:34.976Z,99353.03
2023-04-22T13:02:09.661Z,99352.72
2023-04-22T13:04:43.038Z,99340.00
2023-04-22T13:07:17.494Z,99343.06
2023-04-22T13:09:51.404Z,99355.34
2023-04-22T13:12:26.329Z,99352.22
2023-04-22T13:14:59.730Z,99349.94
2023-04-22T13:17:34.792Z,99353.22
2023-04-22T13:20:09.657Z,99340.75
2023-04-22T13:22:43.225Z,99348.19
2023-04-22T13:25:16.391Z,99348.38
2023-04-22T13:27:49.615Z,99350.34
2023-04-22T13:30:22.708Z,99357.94
2023-04-22T13:32:57.214Z,99362.97
2023-04-22T13:35:30.304Z,99364.81
2023-04-22T13:38:03.365Z,99368.56
2023-04-22T13:40:37.813Z,99375.09
2023-04-22T13:43:10.956Z,99382.94
2023-04-22T13:45:44.230Z,99389.50
2023-04-22T13:48:18.718Z,99393.34
2023-04-22T13:50:52.073Z,99405.81
2023-04-22T13:53:25.249Z,99412.94
2023-04-22T13:55:58.364Z,99419.66
2023-04-22T13:58:32.362Z,99426.97
2023-04-22T14:01:05.990Z,99421.03
2023-04-22T14:03:40.504Z,99421.59
2023-04-22T14:06:14.793Z,99429.50
2023-04-22T14:08:48.066Z,99432.53
2023-04-22T14:11:21.637Z,99427.38
2023-04-22T14:13:54.941Z,99437.28
2023-04-22T14:16:27.880Z,99433.25
2023-04-22T14:19:06.150Z,99443.81
2023-04-22T14:21:39.303Z,99454.75
2023-04-22T14:24:12.860Z,99472.94
2023-04-22T14:26:46.212Z,99478.66
2023-04-22T14:29:19.392Z,99475.84
2023-04-22T14:31:52.423Z,99475.13
2023-04-22T14:34:27.702Z,99463.38
2023-04-22T14:37:00.882Z,99467.50
2023-04-22T14:39:34.130Z,99477.91
2023-04-22T14:42:07.348Z,99500.38
2023-04-22T14:44:40.381Z,99495.84
2023-04-22T14:47:13.358Z,99491.78
2023-04-22T14:49:47.909Z,99494.28
2023-04-22T14:52:21.061Z,99489.78
2023-04-22T14:54:54.392Z,99488.25
2023-04-22T14:57:27.781Z,99480.06
2023-04-22T15:00:00.970Z,99486.84
2023-04-22T15:02:34.322Z,99490.69
2023-04-22T15:05:09.196Z,99488.00
2023-04-22T15:07:42.156Z,99485.44
2023-04-22T15:10:16.900Z,99493.81
2023-04-22T15:12:51.811Z,99493.69
2023-04-22T15:15:25.582Z,99490.78
2023-04-22T15:17:59.003Z,99494.53
2023-04-22T15:20:33.450Z,99492.59
2023-04-22T15:23:06.600Z,99488.06
2023-04-22T15:25:40.557Z,99490.28
2023-04-22T15:28:13.616Z,99492.28
2023-04-22T15:30:47.213Z,99477.59
2023-04-22T15:33:20.530Z,99487.03
2023-04-22T15:35:54.910Z,99483.88
2023-04-22T15:38:28.820Z,99492.75
2023-04-22T15:41:02.132Z,99478.31
2023-04-22T15:43:35.549Z,99485.03
2023-04-22T15:46:08.544Z,99483.97
2023-04-22T15:48:47.090Z,99487.00
2023-04-22T15:51:21.912Z,99498.25
2023-04-22T15:53:57.258Z,99500.94
2023-04-22T15:56:33.053Z,99501.63
2023-04-22T15:59:05.972Z,99508.53
2023-04-22T16:01:40.701Z,99515.16
2023-04-22T16:04:14.199Z,99521.03
2023-04-22T16:06:50.734Z,99527.44
2023-04-22T16:09:24.101Z,99544.41
2023-04-22T16:11:57.683Z,99546.06
2023-04-22T16:14:31.131Z,99549.72
2023-04-22T16:17:05.968Z,99554.75
2023-04-22T16:19:39.340Z,99554.50
2023-04-22T16:22:14.212Z,99541.75
2023-04-22T16:24:47.179Z,99552.16
2023-04-22T16:27:20.360Z,99547.31
2023-04-22T16:29:53.423Z,99556.28
2023-04-22T16:32:26.564Z,99543.06
2023-04-22T16:34:59.561Z,99550.00
2023-04-22T16:37:34.239Z,99551.22
2023-04-22T16:40:08.143Z,99546.50
2023-04-22T16:42:41.670Z,99559.53
2023-04-22T16:45:14.649Z,99547.44
2023-04-22T16:47:47.798Z,99559.66
2023-04-22T16:50:21.092Z,99557.66
2023-04-22T16:52:55.853Z,99565.81
2023-04-22T16:55:28.815Z,99561.84
2023-04-22T16:58:03.942Z,99569.06
2023-04-22T17:00:37.294Z,99564.97
2023-04-22T17:03:11.965Z,99568.88
2023-04-22T17:05:45.349Z,99568.53
2023-04-22T17:08:20.264Z,99575.94
2023-04-22T17:10:53.437Z,99563.91
2023-04-22T17:13:27.320Z,99567.28
2023-04-22T17:16:00.909Z,99563.88
2023-04-22T17:18:36.785Z,99565.91
2023-04-22T17:21:10.335Z,99567.84
2023-04-22T17:23:44.839Z,99562.34
2023-04-22T17:26:17.938Z,99568.38
2023-04-22T17:28:51.269Z,99576.88
2023-04-22T17:31:25.026Z,99574.97
2023-04-22T17:33:58.838Z,99580.53
2023-04-22T17:36:32.604Z,99592.00
2023-04-22T17:39:07.032Z,99594.84
2023-04-22T17:41:40.027Z,99592.59
2023-04-22T17:44:13.219Z,99593.25
2023-04-22T17:46:46.213Z,99597.88
2023-04-22T17:49:19.477Z,99598.44
2023-04-22T17:51:52.780Z,99611.31
2023-04-22T17:54:27.314Z,99608.56
2023-04-22T17:57:00.393Z,99612.41
2023-04-22T17:59:33.406Z,99614.19
2023-04-22T18:02:06.623Z,99613.88
2023-04-22T18:04:39.872Z,99614.22
2023-04-22T18:07:13.389Z,99606.63
2023-04-22T18:09:49.629Z,99604.25
2023-04-22T18:12:27.626Z,99604.97
2023-04-22T18:15:01.691Z,99595.28
2023-04-22T18:17:35.138Z,99592.19
2023-04-22T18:20:17.291Z,99602.25
2023-04-22T18:22:52.541Z,99603.41
2023-04-22T18:25:26.997Z,99601.91
2023-04-22T18:28:03.431Z,99606.06
2023-04-22T18:30:37.339Z,99614.59
2023-04-22T18:33:10.647Z,99617.09
2023-04-22T18:35:43.666Z,99610.25
2023-04-22T18:38:17.401Z,99613.03
2023-04-22T18:40:51.787Z,99617.03
2023-04-22T18:43:25.392Z,99614.25
2023-04-22T18:45:58.460Z,99623.84
2023-04-22T18:48:31.578Z,99618.97
2023-04-22T18:51:04.559Z,99624.88
2023-04-22T18:53:37.639Z,99616.13
2023-04-22T18:56:12.308Z,99624.75
2023-04-22T18:58:45.573Z,99618.09
2023-04-22T19:01:18.744Z,99627.13
2023-04-22T19:03:51.945Z,99619.00
2023-04-22T19:06:24.933Z,99625.75
2023-04-22T19:08:57.955Z,99629.84
2023-04-22T19:11:32.472Z,99631.63
2023-04-22T19:14:06.327Z,99628.06
2023-04-22T19:16:39.554Z,99627.63
2023-04-22T19:19:12.954Z,99632.53
2023-04-22T19:21:46.077Z,99636.69
2023-04-22T19:24:20.251Z,99638.78
2023-04-22T19:26:54.948Z,99638.66
2023-04-22T19:29:28.482Z,99630.91
2023-04-22T19:32:01.987Z,99638.88
2023-04-22T19:34:35.253Z,99632.59
2023-04-22T19:37:08.457Z,99643.81
2023-04-22T19:39:41.793Z,99638.78
2023-04-22T19:42:16.519Z,99635.31
2023-04-22T19:44:50.137Z,99638.50
2023-04-22T19:47:23.625Z,99638.34
2023-04-22T19:49:57.365Z,99632.31
2023-04-22T19:52:30.732Z,99642.88
2023-04-22T19:55:08.818Z,99644.91
2023-04-22T19:57:44.271Z,99642.19
2023-04-22T20:00:18.704Z,99644.91
2023-04-22T20:02:52.000Z,99637.53
2023-04-22T20:05:25.537Z,99643.84
2023-04-22T20:08:01.472Z,99645.13
2023-04-22T20:10:34.739Z,99646.63
2023-04-22T20:13:10.398Z,99646.00
2023-04-22T20:15:44.608Z,99649.28
2023-04-22T20:18:17.818Z,99656.00
2023-04-22T20:20:52.225Z,99657.72
2023-04-22T20:23:25.462Z,99671.34
2023-04-22T20:26:00.053Z,99667.34
2023-04-22T20:28:43.517Z,99662.28
2023-04-22T20:31:18.439Z,99652.06
2023-04-22T20:33:52.134Z,99662.44
2023-04-22T20:36:26.537Z,99665.22
2023-04-22T20:39:00.652Z,99655.22
2023-04-22T20:41:37.149Z,99655.91
2023-04-22T20:44:11.528Z,99657.34
2023-04-22T20:46:44.519Z,99657.41
2023-04-22T20:49:17.979Z,99658.44
2023-04-22T20:51:51.315Z,99655.75
2023-04-22T20:54:29.048Z,99665.34
2023-04-22T20:57:03.645Z,99664.75
2023-04-22T20:59:38.056Z,99658.19
2023-04-22T21:02:12.348Z,99667.56
2023-04-22T21:04:47.327Z,99662.31
2023-04-22T21:07:22.195Z,99665.13
2023-04-22T21:09:55.563Z,99668.38
2023-04-22T21:12:30.138Z,99668.69
2023-04-22T21:15:06.091Z,99669.47
2023-04-22T21:17:44.497Z,99668.91
2023-04-22T21:20:17.658Z,99662.97
2023-04-22T21:22:50.489Z,99672.91
2023-04-22T21:25:24.427Z,99670.59
2023-04-22T21:27:57.987Z,99669.44
2023-04-22T21:30:33.297Z,99663.91
2023-04-22T21:33:07.764Z,99664.78
2023-04-22T21:35:41.591Z,99659.84
2023-04-22T21:38:16.288Z,99662.22
2023-04-22T21:40:49.607Z,99652.97
2023-04-22T21:43:23.019Z,99656.06
2023-04-22T21:45:57.411Z,99656.88
2023-04-22T21:48:30.860Z,99659.59
2023-04-22T21:51:04.112Z,99665.22
2023-04-22T21:53:37.121Z,99663.94
2023-04-22T21:56:10.231Z,99672.38
2023-04-22T21:58:43.596Z,99668.56
2023-04-22T22:01:18.039Z,99670.00
2023-04-22T22:03:51.819Z,99671.41
2023-04-22T22:06:24.994Z,99667.47
2023-04-22T22:08:58.087Z,99672.34
2023-04-22T22:11:31.633Z,99657.03
2023-04-22T22:14:05.748Z,99659.69
2023-04-22T22:16:40.721Z,99665.25
2023-04-22T22:19:14.493Z,99660.84
2023-04-22T22:21:47.742Z,99659.56
2023-04-22T22:24:21.150Z,99659.00
2023-04-22T22:26:54.316Z,99652.81
2023-04-22T22:29:27.798Z,99655.09
2023-04-22T22:32:02.368Z,99652.25
2023-04-22T22:34:35.613Z,99651.69
2023-04-22T22:37:08.904Z,99656.47
2023-04-22T22:39:42.202Z,99655.50
2023-04-22T22:42:15.722Z,99650.00
2023-04-22T22:44:49.108Z,99649.31
2023-04-22T22:47:24.854Z,99653.53
2023-04-22T22:49:57.925Z,99652.22
2023-04-22T22:52:32.248Z,99656.53
2023-04-22T22:55:05.553Z,99655.75
2023-04-22T22:57:38.887Z,99651.34
2023-04-22T23:00:12.810Z,99653.63
2023-04-22T23:02:47.604Z,99650.75
2023-04-22T23:05:21.269Z,99653.59
2023-04-22T23:07:54.400Z,99654.38
2023-04-22T23:10:27.556Z,99658.72
2023-04-22T23:13:01.589Z,99655.69
2023-04-22T23:15:34.984Z,99660.16
2023-04-22T23:18:10.660Z,99658.72
2023-04-22T23:20:44.393Z,99656.91
2023-04-22T23:23:17.567Z,99664.44
2023-04-22T23:25:51.390Z,99660.88
2023-04-22T23:28:25.120Z,99664.88
2023-04-22T23:30:58.344Z,99655.69
2023-04-22T23:33:35.738Z,99654.03
2023-04-22T23:36:10.331Z,99651.75
2023-04-22T23:38:43.731Z,99654.75
2023-04-22T23:41:17.064Z,99652.72
2023-04-22T23:43:50.030Z,99650.53
2023-04-22T23:46:23.319Z,99651.72
2023-04-22T23:48:59.015Z,99657.44
2023-04-22T23:51:32.102Z,99652.78
2023-04-22T23:54:05.332Z,99655.69
2023-04-22T23:56:38.950Z,99660.59
2023-04-22T23:59:12.255Z,99658.53
